Home > Products > Valid Products > TAF

000
FTUS42 KTBW 311120
TAFRSW
TAF
KRSW 311120Z 3112/0112 18004KT P6SM VCTS SCT030CB BKN250
     FM311500 21009KT P6SM VCTS SCT030CB BKN250
     FM010000 19004KT P6SM SCT030 BKN250=



000
FTUS42 KTBW 311120
TAFPIE
TAF
KPIE 311120Z 3112/0112 19005KT P6SM VCSH SCT030 BKN250
      TEMPO 3113/3114 VRB15G25KT 3SM TSRA BKN030CB
     FM311400 22012KT P6SM VCTS SCT030CB BKN250
     FM010000 21007KT P6SM VCTS SCT030CB BKN250
     FM010600 19007KT P6SM SCT030 BKN250=



000
FTUS42 KTBW 311120
TAFSRQ
TAF
KSRQ 311120Z 3112/0112 22008KT P6SM VCSH SCT030 BKN250
     FM311500 22011KT P6SM VCTS SCT030CB BKN250
     FM010000 21007KT P6SM VCTS SCT030CB BKN250
     FM010600 19007KT P6SM SCT030 BKN250=



000
FTUS42 KTBW 311120
TAFFMY
TAF
KFMY 311120Z 3112/0112 20004KT P6SM VCTS SCT030CB BKN250
     FM311600 23009KT P6SM VCTS SCT030CB BKN250
     FM010000 20004KT P6SM SCT030 BKN250=



000
FTUS42 KTBW 311120
TAFTPA
TAF
KTPA 311120Z 3112/0112 21006KT P6SM VCSH SCT030 BKN250
      TEMPO 3113/3114 VRB15G25KT 3SM TSRA BKN030CB
     FM311500 22010KT P6SM VCTS SCT030CB BKN250
     FM010000 21006KT P6SM VCTS SCT030CB BKN250
     FM010600 20007KT P6SM SCT030 BKN250=



000
FTUS42 KTBW 310855 AAA
TAFTPA
TAF AMD
KTPA 310855Z 3109/0106 22004KT P6SM VCSH SCT030 BKN250
     FM311500 22010KT P6SM VCTS SCT030CB BKN250
     FM010000 21006KT P6SM VCTS SCT030CB BKN250=



000
FTUS42 KTBW 310539
TAFTPA
TAF
KTPA 310539Z 3106/0106 19004KT P6SM VCSH FEW015 BKN250
     FM310900 22004KT P6SM VCTS SCT030CB BKN250
     FM311500 22010KT P6SM VCTS SCT030CB BKN250
     FM010000 21006KT P6SM VCTS SCT030CB BKN250=



000
FTUS42 KTBW 310539
TAFPIE
TAF
KPIE 310539Z 3106/0106 20004KT P6SM VCSH SCT040 BKN250
     FM310900 19004KT P6SM VCTS SCT030CB BKN250
     FM311400 22012KT P6SM VCTS SCT030CB BKN250
     FM010000 21007KT P6SM VCTS SCT030CB BKN250=



000
FTUS42 KTBW 310539
TAFRSW
TAF
KRSW 310539Z 3106/0106 VRB05KT P6SM VCSH BKN250
     FM311200 VRB03KT P6SM VCTS SCT030CB BKN250
     FM311500 21009KT P6SM VCTS SCT030CB BKN250
     FM010000 19004KT P6SM SCT030 BKN250=



000
FTUS42 KTBW 310539
TAFSRQ
TAF
KSRQ 310539Z 3106/0106 VRB04KT P6SM FEW030 BKN250
     FM310900 19005KT P6SM VCTS SCT030CB BKN250
     FM311500 22011KT P6SM VCTS SCT030CB BKN250
     FM010000 21007KT P6SM VCTS SCT030CB BKN250=



000
FTUS42 KTBW 310539
TAFFMY
TAF
KFMY 310539Z 3106/0106 VRB03KT P6SM VCSH FEW060 BKN250
     FM311200 20004KT P6SM VCTS SCT030CB BKN250
     FM311600 23009KT P6SM VCTS SCT030CB BKN250
     FM010000 20004KT P6SM SCT030 BKN250=



000
FTUS42 KTBW 310539
TAFSRQ
TAF
KSRQ 310539Z 3106/0106 VRB04KT P6SM FEW030 BKN250
     FM310900 19005KT P6SM VCTS SCT030CB BKN250
     FM311500 22011KT P6SM VCTS SCT030CB BKN250
     FM010000 21007KT P6SM VCTS SCT030CB BKN250=



000
FTUS42 KTBW 310539
TAFRSW
TAF
KRSW 310539Z 3106/0106 VRB05KT P6SM VCSH BKN250
     FM311200 VRB03KT P6SM VCTS SCT030CB BKN250
     FM311500 21009KT P6SM VCTS SCT030CB BKN250
     FM010000 19004KT P6SM SCT030 BKN250=



000
FTUS42 KTBW 310539
TAFPIE
TAF
KPIE 310539Z 3106/0106 20004KT P6SM VCSH SCT040 BKN250
     FM310900 19004KT P6SM VCTS SCT030CB BKN250
     FM311400 22012KT P6SM VCTS SCT030CB BKN250
     FM010000 21007KT P6SM VCTS SCT030CB BKN250=



000
FTUS42 KTBW 310539
TAFTPA
TAF
KTPA 310539Z 3106/0106 19004KT P6SM VCSH FEW015 BKN250
     FM310900 22004KT P6SM VCTS SCT030CB BKN250
     FM311500 22010KT P6SM VCTS SCT030CB BKN250
     FM010000 21006KT P6SM VCTS SCT030CB BKN250=



000
FTUS42 KTBW 310539
TAFFMY
TAF
KFMY 310539Z 3106/0106 VRB03KT P6SM VCSH FEW060 BKN250
     FM311200 20004KT P6SM VCTS SCT030CB BKN250
     FM311600 23009KT P6SM VCTS SCT030CB BKN250
     FM010000 20004KT P6SM SCT030 BKN250=



000
FTUS42 KTBW 310310 AAA
TAFTPA
TAF AMD
KTPA 310310Z 3103/3124 VRB04KT P6SM VCSH SCT020 OVC250
     FM310900 22004KT P6SM VCTS SCT030CB BKN250
     FM311500 23010KT P6SM VCTS SCT030CB BKN090 BKN250
     FM312100 23007KT P6SM VCTS SCT035CB BKN250=



000
FTUS42 KTBW 310310 AAA
TAFTPA
TAF AMD
KTPA 310310Z 3103/3124 VRB04KT P6SM VCSH SCT020 OVC250
     FM310900 22004KT P6SM VCTS SCT030CB BKN250
     FM311500 23010KT P6SM VCTS SCT030CB BKN090 BKN250
     FM312100 23007KT P6SM VCTS SCT035CB BKN250=



000
FTUS42 KTBW 310120 AAB
TAFPIE
TAF AMD
KPIE 310120Z 3101/3124 22006KT P6SM VCSH SCT025 BKN090 BKN250
     FM310300 22004KT P6SM VCTS SCT035CB BKN250
     FM311500 23007KT P6SM SHRA BKN090 BKN250
     FM312100 23009KT P6SM VCTS SCT035CB BKN250=



000
FTUS42 KTBW 302347 AAA
TAFSRQ
TAF AMD
KSRQ 302347Z 3100/3124 25006KT P6SM VCSH SCT025 BKN040 BKN250
      TEMPO 3100/3101 VRB15G30KT 3SM TSRA BKN015CB
     FM310300 23005KT P6SM VCTS SCT035CB BKN250
     FM311200 21006KT P6SM SHRA SCT025 BKN090
     FM311600 22010KT P6SM SHRA BKN090 BKN250
     FM312100 23008KT P6SM VCTS SCT035CB BKN250=



000
FTUS42 KTBW 302346 AAA
TAFPIE
TAF AMD
KPIE 302346Z 3100/3124 22009G15KT P6SM VCSH SCT025 BKN090 BKN250
     FM310300 22004KT P6SM VCTS SCT035CB BKN250
     FM311500 23007KT P6SM SHRA BKN090 BKN250
     FM312100 23009KT P6SM VCTS SCT035CB BKN250=



000
FTUS42 KTBW 302344
TAFSRQ
TAF
KSRQ 302344Z 3100/3124 25006KT P6SM VCSH SCT025 BKN040 BKN250
     FM310300 23005KT P6SM VCTS SCT035CB BKN250
     FM311200 21006KT P6SM SHRA SCT025 BKN090
     FM311600 22010KT P6SM SHRA BKN090 BKN250
     FM312100 23008KT P6SM VCTS SCT035CB BKN250=



000
FTUS42 KTBW 302344
TAFRSW
TAF
KRSW 302344Z 3100/3124 26006KT P6SM VCSH SCT035 BKN250
     FM310300 VRB03KT P6SM BKN150 BKN250
     FM311200 VRB03KT P6SM VCTS SCT035CB BKN250
     FM311500 23007KT P6SM VCTS SCT025CB BKN150
     FM311900 23011KT P6SM VCTS SCT035CB BKN150
     FM312300 22007KT P6SM VCTS SCT025CB BKN150=



000
FTUS42 KTBW 302344
TAFTPA
TAF
KTPA 302344Z 3100/3124 25006KT P6SM VCSH SCT025 BKN090 BKN250
     FM310300 22004KT P6SM BKN120 BKN250
     FM310900 22004KT P6SM VCTS SCT035CB BKN250
     FM311500 23007KT P6SM SHRA BKN090 BKN250
     FM312100 23009KT P6SM VCTS SCT035CB BKN250=



000
FTUS42 KTBW 302344
TAFPIE
TAF
KPIE 302344Z 3100/3124 25006KT P6SM VCSH SCT025 BKN090 BKN250
     FM310300 22004KT P6SM VCTS SCT035CB BKN250
     FM311500 23007KT P6SM SHRA BKN090 BKN250
     FM312100 23009KT P6SM VCTS SCT035CB BKN250=



000
FTUS42 KTBW 302344
TAFSRQ
TAF
KSRQ 302344Z 3100/3124 25006KT P6SM VCSH SCT025 BKN040 BKN250
     FM310300 23005KT P6SM VCTS SCT035CB BKN250
     FM311200 21006KT P6SM SHRA SCT025 BKN090
     FM311600 22010KT P6SM SHRA BKN090 BKN250
     FM312100 23008KT P6SM VCTS SCT035CB BKN250=



000
FTUS42 KTBW 302344
TAFTPA
TAF
KTPA 302344Z 3100/3124 25006KT P6SM VCSH SCT025 BKN090 BKN250
     FM310300 22004KT P6SM BKN120 BKN250
     FM310900 22004KT P6SM VCTS SCT035CB BKN250
     FM311500 23007KT P6SM SHRA BKN090 BKN250
     FM312100 23009KT P6SM VCTS SCT035CB BKN250=



000
FTUS42 KTBW 302344
TAFPIE
TAF
KPIE 302344Z 3100/3124 25006KT P6SM VCSH SCT025 BKN090 BKN250
     FM310300 22004KT P6SM VCTS SCT035CB BKN250
     FM311500 23007KT P6SM SHRA BKN090 BKN250
     FM312100 23009KT P6SM VCTS SCT035CB BKN250=



000
FTUS42 KTBW 302344
TAFRSW
TAF
KRSW 302344Z 3100/3124 26006KT P6SM VCSH SCT035 BKN250
     FM310300 VRB03KT P6SM BKN150 BKN250
     FM311200 VRB03KT P6SM VCTS SCT035CB BKN250
     FM311500 23007KT P6SM VCTS SCT025CB BKN150
     FM311900 23011KT P6SM VCTS SCT035CB BKN150
     FM312300 22007KT P6SM VCTS SCT025CB BKN150=



000
FTUS42 KTBW 302344
TAFFMY
TAF
KFMY 302344Z 3100/3124 28007KT P6SM VCSH SCT025 BKN150
     FM310300 VRB03KT P6SM BKN150 BKN250
     FM311200 20004KT P6SM VCTS SCT035CB BKN250
     FM311600 23009KT P6SM VCTS SCT025CB BKN150=



000
FTUS42 KTBW 302332 AAA
TAFSRQ
TAF AMD
KSRQ 302332Z 3100/3118 24011KT P6SM VCTS SCT020CB BKN120
      TEMPO 3100/3101 VRB15G30KT 2SM TSRA BKN015CB
     FM310300 23005KT P6SM VCSH FEW025 SCT250
     FM311200 22009KT P6SM VCTS SCT030CB BKN080 BKN250=



000
FTUS42 KTBW 302103 AAA
TAFTPA
TAF AMD
KTPA 302103Z 3021/3118 24008KT P6SM VCTS SCT030CB BKN120
      TEMPO 3021/3023 VRB15G25KT 4SM SHRA BKN025
     FM310300 22005KT P6SM VCSH FEW025 SCT250
     FM311200 22008KT P6SM VCTS SCT030CB BKN080 BKN250=



000
FTUS42 KTBW 302103 AAA
TAFTPA
TAF AMD
KTPA 302103Z 3021/3118 24008KT P6SM VCTS SCT030CB BKN120
      TEMPO 3021/3023 VRB15G25KT 4SM SHRA BKN025
     FM310300 22005KT P6SM VCSH FEW025 SCT250
     FM311200 22008KT P6SM VCTS SCT030CB BKN080 BKN250=



000
FTUS42 KTBW 301742
TAFFMY
TAF
KFMY 301742Z 3018/3118 23010KT P6SM VCTS SCT030CB BKN120
     FM310300 VRB03KT P6SM VCSH FEW025 SCT250
     FM311400 21007KT P6SM VCTS SCT030CB BKN080 BKN250=



000
FTUS42 KTBW 301742
TAFSRQ
TAF
KSRQ 301742Z 3018/3118 24011KT P6SM VCTS SCT020CB BKN120
     FM310300 23005KT P6SM VCSH FEW025 SCT250
     FM311200 22009KT P6SM VCTS SCT030CB BKN080 BKN250=



000
FTUS42 KTBW 301742
TAFRSW
TAF
KRSW 301742Z 3018/3118 25011KT P6SM VCTS SCT025CB BKN120
     FM310300 VRB03KT P6SM VCSH FEW025 SCT250
     FM311400 20008KT P6SM VCTS SCT030CB BKN080 BKN250=



000
FTUS42 KTBW 301742
TAFTPA
TAF
KTPA 301742Z 3018/3118 24008KT P6SM VCTS SCT030CB BKN120
     FM310300 22005KT P6SM VCSH FEW025 SCT250
     FM311200 22008KT P6SM VCTS SCT030CB BKN080 BKN250=



000
FTUS42 KTBW 301742
TAFPIE
TAF
KPIE 301742Z 3018/3118 24010KT P6SM VCTS SCT025CB BKN120
     FM310300 22004KT P6SM VCSH FEW025 SCT250
     FM311200 22008KT P6SM VCTS SCT030CB BKN080 BKN250=



000
FTUS42 KTBW 301505 AAA
TAFTPA
TAF AMD
KTPA 301505Z 3015/3112 20008KT P6SM VCTS SCT020CB BKN120 BKN250
     FM301800 25011KT P6SM VCTS SCT030CB BKN250
     FM310300 24005KT P6SM FEW025 SCT250
     FM310900 22006KT P6SM VCTS SCT030CB SCT250=



000
FTUS42 KTBW 301505 AAA
TAFTPA
TAF AMD
KTPA 301505Z 3015/3112 20008KT P6SM VCTS SCT020CB BKN120 BKN250
     FM301800 25011KT P6SM VCTS SCT030CB BKN250
     FM310300 24005KT P6SM FEW025 SCT250
     FM310900 22006KT P6SM VCTS SCT030CB SCT250=



000
FTUS42 KTBW 301136
TAFFMY
TAF
KFMY 301136Z 3012/3112 VRB03KT P6SM VCSH SCT020 BKN035
      TEMPO 3012/3013 BKN020
     FM301400 26006KT P6SM VCTS BKN030CB BKN250
     FM301800 26012KT P6SM VCTS SCT030CB BKN250
     FM310000 VRB03KT P6SM FEW025 SCT250
     FM310900 VRB03KT P6SM VCTS SCT030CB SCT250=



000
FTUS42 KTBW 301136
TAFSRQ
TAF
KSRQ 301136Z 3012/3112 VRB03KT P6SM VCTS SCT030CB SCT250
     FM301400 24011KT P6SM VCTS SCT030CB BKN250
     FM310300 29007KT P6SM FEW025 SCT250
     FM310900 23007KT P6SM VCTS SCT030CB SCT250=



000
FTUS42 KTBW 301136
TAFPIE
TAF
KPIE 301136Z 3012/3112 VRB05KT P6SM VCSH SCT030 SCT250
     FM301400 24006KT P6SM VCTS BKN030CB BKN090 BKN250
     FM301800 25012KT P6SM VCTS SCT030CB BKN250
     FM310300 24004KT P6SM FEW025 SCT250
     FM310900 VRB05KT P6SM VCTS SCT030CB SCT250=



000
FTUS42 KTBW 301136
TAFTPA
TAF
KTPA 301136Z 3012/3112 26004KT P6SM VCSH SCT030 SCT250
     FM301400 22005KT P6SM VCTS BKN030CB BKN090 BKN250
     FM301800 25011KT P6SM VCTS SCT030CB BKN250
     FM310300 24005KT P6SM FEW025 SCT250
     FM310900 22006KT P6SM VCTS SCT030CB SCT250=



000
FTUS42 KTBW 301136
TAFPIE
TAF
KPIE 301136Z 3012/3112 VRB05KT P6SM VCSH SCT030 SCT250
     FM301400 24006KT P6SM VCTS BKN030CB BKN090 BKN250
     FM301800 25012KT P6SM VCTS SCT030CB BKN250
     FM310300 24004KT P6SM FEW025 SCT250
     FM310900 VRB05KT P6SM VCTS SCT030CB SCT250=



000
FTUS42 KTBW 301136
TAFTPA
TAF
KTPA 301136Z 3012/3112 26004KT P6SM VCSH SCT030 SCT250
     FM301400 22005KT P6SM VCTS BKN030CB BKN090 BKN250
     FM301800 25011KT P6SM VCTS SCT030CB BKN250
     FM310300 24005KT P6SM FEW025 SCT250
     FM310900 22006KT P6SM VCTS SCT030CB SCT250=



000
FTUS42 KTBW 301136
TAFFMY
TAF
KFMY 301136Z 3012/3112 VRB03KT P6SM VCSH SCT020 BKN035
      TEMPO 3012/3013 BKN020
     FM301400 26006KT P6SM VCTS BKN030CB BKN250
     FM301800 26012KT P6SM VCTS SCT030CB BKN250
     FM310000 VRB03KT P6SM FEW025 SCT250
     FM310900 VRB03KT P6SM VCTS SCT030CB SCT250=



000
FTUS42 KTBW 301136
TAFSRQ
TAF
KSRQ 301136Z 3012/3112 VRB03KT P6SM VCTS SCT030CB SCT250
     FM301400 24011KT P6SM VCTS SCT030CB BKN250
     FM310300 29007KT P6SM FEW025 SCT250
     FM310900 23007KT P6SM VCTS SCT030CB SCT250=



000
FTUS42 KTBW 301136
TAFRSW
TAF
KRSW 301136Z 3012/3112 VRB03KT P6SM VCSH SCT030
     FM301400 26006KT P6SM VCTS BKN030CB BKN250
     FM301800 26010KT P6SM VCTS SCT030CB BKN250
     FM310000 VRB03KT P6SM FEW025 SCT250
     FM310900 VRB03KT P6SM VCTS SCT030CB SCT250=



000
FTUS42 KTBW 301136
TAFRSW
TAF
KRSW 301136Z 3012/3112 VRB03KT P6SM VCSH SCT030
     FM301400 26006KT P6SM VCTS BKN030CB BKN250
     FM301800 26010KT P6SM VCTS SCT030CB BKN250
     FM310000 VRB03KT P6SM FEW025 SCT250
     FM310900 VRB03KT P6SM VCTS SCT030CB SCT250=



000
FTUS42 KTBW 300949 AAA
TAFSRQ
TAF AMD
KSRQ 300949Z 3010/3106 26005KT P6SM VCTS SCT015CB BKN025
     FM301400 24008KT P6SM VCTS SCT030CB BKN250
     FM310000 29007KT P6SM FEW025 SCT250=



000
FTUS42 KTBW 300915 AAA
TAFTPA
TAF AMD
KTPA 300915Z 3009/3106 26004KT P6SM VCSH SCT030 SCT250
     FM301400 22005KT P6SM VCTS SCT030CB BKN090 BKN250
     FM310000 24005KT P6SM FEW025 SCT250=



000
FTUS42 KTBW 300915 AAA
TAFTPA
TAF AMD
KTPA 300915Z 3009/3106 26004KT P6SM VCSH SCT030 SCT250
     FM301400 22005KT P6SM VCTS SCT030CB BKN090 BKN250
     FM310000 24005KT P6SM FEW025 SCT250=



000
FTUS42 KTBW 300541
TAFTPA
TAF
KTPA 300541Z 3006/3106 25004KT P6SM FEW015 SCT250
     FM300900 26004KT P6SM VCSH SCT030
     FM301400 22005KT P6SM VCTS SCT030CB BKN090 BKN250
     FM310000 24005KT P6SM FEW025 SCT250=



000
FTUS42 KTBW 300541
TAFPIE
TAF
KPIE 300541Z 3006/3106 VRB03KT P6SM FEW015 SCT250
     FM300900 26004KT P6SM VCSH SCT030
     FM301400 24007KT P6SM VCTS SCT030CB BKN090 BKN250
     FM310000 24004KT P6SM FEW025 SCT250=



000
FTUS42 KTBW 300541
TAFRSW
TAF
KRSW 300541Z 3006/3106 00000KT P6SM FEW020 SCT250
     FM300900 VRB03KT P6SM VCSH SCT030
     FM301400 26010KT P6SM VCTS SCT030CB BKN250
     FM310000 VRB03KT P6SM FEW025 SCT250=



000
FTUS42 KTBW 300541
TAFSRQ
TAF
KSRQ 300541Z 3006/3106 28007KT P6SM FEW020 SCT250
     FM300900 26005KT P6SM VCSH SCT030
     FM301400 24008KT P6SM VCTS SCT030CB BKN250
     FM310000 29007KT P6SM FEW025 SCT250=



000
FTUS42 KTBW 300541
TAFFMY
TAF
KFMY 300541Z 3006/3106 00000KT P6SM FEW020 SCT250
     FM300900 VRB03KT P6SM VCSH SCT030
     FM301400 26009KT P6SM VCTS SCT030CB BKN250
     FM310000 VRB03KT P6SM FEW025 SCT250=



000
FTUS42 KTBW 300541
TAFTPA
TAF
KTPA 300541Z 3006/3106 25004KT P6SM FEW015 SCT250
     FM300900 26004KT P6SM VCSH SCT030
     FM301400 22005KT P6SM VCTS SCT030CB BKN090 BKN250
     FM310000 24005KT P6SM FEW025 SCT250=



000
FTUS42 KTBW 300541
TAFFMY
TAF
KFMY 300541Z 3006/3106 00000KT P6SM FEW020 SCT250
     FM300900 VRB03KT P6SM VCSH SCT030
     FM301400 26009KT P6SM VCTS SCT030CB BKN250
     FM310000 VRB03KT P6SM FEW025 SCT250=



000
FTUS42 KTBW 300541
TAFRSW
TAF
KRSW 300541Z 3006/3106 00000KT P6SM FEW020 SCT250
     FM300900 VRB03KT P6SM VCSH SCT030
     FM301400 26010KT P6SM VCTS SCT030CB BKN250
     FM310000 VRB03KT P6SM FEW025 SCT250=



000
FTUS42 KTBW 300541
TAFPIE
TAF
KPIE 300541Z 3006/3106 VRB03KT P6SM FEW015 SCT250
     FM300900 26004KT P6SM VCSH SCT030
     FM301400 24007KT P6SM VCTS SCT030CB BKN090 BKN250
     FM310000 24004KT P6SM FEW025 SCT250=



000
FTUS42 KTBW 300541
TAFSRQ
TAF
KSRQ 300541Z 3006/3106 28007KT P6SM FEW020 SCT250
     FM300900 26005KT P6SM VCSH SCT030
     FM301400 24008KT P6SM VCTS SCT030CB BKN250
     FM310000 29007KT P6SM FEW025 SCT250=



000
FTUS42 KTBW 300257 AAA
TAFTPA
TAF AMD
KTPA 300257Z 3003/3024 23004KT P6SM SCT025 BKN250
     FM300900 23004KT P6SM VCSH SCT035
     FM301200 VRB03KT P6SM VCTS SCT035CB BKN090
     FM301600 24007KT P6SM SHRA SCT040 BKN090=



000
FTUS42 KTBW 300257 AAA
TAFTPA
TAF AMD
KTPA 300257Z 3003/3024 23004KT P6SM SCT025 BKN250
     FM300900 23004KT P6SM VCSH SCT035
     FM301200 VRB03KT P6SM VCTS SCT035CB BKN090
     FM301600 24007KT P6SM SHRA SCT040 BKN090=



000
FTUS42 KTBW 300138 AAA
TAFPIE
TAF AMD
KPIE 300138Z 3002/3024 VRB03KT P6SM BKN015
      TEMPO 3002/3004 SCT015 BKN035
     FM301200 VRB03KT P6SM VCTS SCT035CB BKN090
     FM301500 25007KT P6SM VCSH SCT035 BKN090=



000
FTUS42 KTBW 292326
TAFRSW
TAF
KRSW 292326Z 3000/3024 VRB03KT P6SM BKN250
     FM301200 VRB03KT P6SM VCSH SCT035
     FM301500 26010KT P6SM VCTS SCT035CB BKN120=



000
FTUS42 KTBW 292326
TAFSRQ
TAF
KSRQ 292326Z 3000/3024 28004KT P6SM BKN250
     FM300900 24004KT P6SM VCSH SCT035
     FM301500 25008KT P6SM VCTS SCT035CB
     FM301800 25010KT P6SM VCSH SCT050 BKN090=



000
FTUS42 KTBW 292326
TAFTPA
TAF
KTPA 292326Z 3000/3024 23004KT P6SM SCT025
     FM300900 23004KT P6SM VCSH SCT035
     FM301200 VRB03KT P6SM VCTS SCT035CB BKN090
     FM301600 24007KT P6SM SHRA SCT040 BKN090=



000
FTUS42 KTBW 292326
TAFFMY
TAF
KFMY 292326Z 3000/3024 VRB03KT P6SM BKN250
     FM301200 VRB03KT P6SM VCSH SCT025
     FM301500 26006KT P6SM VCTS SCT035CB BKN150=



000
FTUS42 KTBW 292326
TAFPIE
TAF
KPIE 292326Z 3000/3024 VRB03KT P6SM VCSH SCT035
     FM301200 VRB03KT P6SM VCTS SCT035CB BKN090
     FM301500 25007KT P6SM VCSH SCT035 BKN090=



000
FTUS42 KTBW 292055 AAA
TAFTPA
TAF AMD
KTPA 292055Z 2921/3018 23008KT P6SM VCSH SCT035 BKN110
     FM300300 22006KT P6SM SCT015 BKN150
     FM301000 24006KT P6SM VCSH SCT025 BKN090=



000
FTUS42 KTBW 291947 AAA
TAFFMY
TAF AMD
KFMY 291947Z 2920/3018 27007KT P6SM VCSH SCT030 OVC100
      TEMPO 2920/2921 5SM -RA BKN030 BKN100
     FM300200 26005KT P6SM SCT030 BKN200
     FM301300 26009KT P6SM VCSH SCT030 BKN150=



000
FTUS42 KTBW 291947 AAA
TAFRSW
TAF AMD
KRSW 291947Z 2920/3018 28007KT P6SM VCSH SCT030 OVC100
      TEMPO 2920/2921 5SM -RA BKN030 BKN100
     FM300200 26005KT P6SM SCT030 BKN200
     FM301300 27009KT P6SM VCSH SCT030 BKN150=



000
FTUS42 KTBW 291947 AAA
TAFFMY
TAF AMD
KFMY 291947Z 2920/3018 27007KT P6SM VCSH SCT030 OVC100
      TEMPO 2920/2921 5SM -RA BKN030 BKN100
     FM300200 26005KT P6SM SCT030 BKN200
     FM301300 26009KT P6SM VCSH SCT030 BKN150=



000
FTUS42 KTBW 291947 AAA
TAFRSW
TAF AMD
KRSW 291947Z 2920/3018 28007KT P6SM VCSH SCT030 OVC100
      TEMPO 2920/2921 5SM -RA BKN030 BKN100
     FM300200 26005KT P6SM SCT030 BKN200
     FM301300 27009KT P6SM VCSH SCT030 BKN150=



000
FTUS42 KTBW 291733
TAFFMY
TAF
KFMY 291733Z 2918/3018 29011KT 6SM -RA VCSH SCT030 OVC100
     FM292000 30009KT P6SM VCSH SCT030 OVC100
     FM300200 26005KT P6SM SCT030 BKN200
     FM301300 26009KT P6SM VCSH SCT030 BKN150=



000
FTUS42 KTBW 291733
TAFTPA
TAF
KTPA 291733Z 2918/3018 34020G33KT 3SM TSRA BKN015CB OVC050
     FM291805 24011KT P6SM VCTS SCT025CB BKN050
     FM292000 27007KT P6SM VCSH SCT030 BKN040 BKN200
     FM300300 25006KT P6SM SCT015 BKN150
     FM301000 24006KT P6SM VCSH SCT025 BKN090=



000
FTUS42 KTBW 291733
TAFSRQ
TAF
KSRQ 291733Z 2918/3018 26011KT P6SM VCTS SCT020CB BKN200
     FM300000 27007KT P6SM SCT030 BKN200
     FM301000 25006KT P6SM VCSH SCT025 BKN150=



000
FTUS42 KTBW 291733
TAFRSW
TAF
KRSW 291733Z 2918/3018 30009KT 6SM -RA VCSH SCT030 OVC100
     FM292000 28007KT P6SM VCSH SCT030 OVC100
     FM300200 26005KT P6SM SCT030 BKN200
     FM301300 27009KT P6SM VCSH SCT030 BKN150=



000
FTUS42 KTBW 291733
TAFPIE
TAF
KPIE 291733Z 2918/3018 31015G25KT 3SM TSRA BKN015CB OVC050
     FM291815 22012KT P6SM VCTS SCT025CB BKN040
     FM292100 27007KT P6SM VCSH SCT030 BKN040 BKN200
     FM300300 25004KT P6SM SCT020 BKN100
     FM301000 26007KT P6SM VCSH SCT025 BKN090=



000
FTUS42 KTBW 291657 AAA
TAFPIE
TAF AMD
KPIE 291657Z 2917/3012 22012KT P6SM VCTS SCT025CB BKN050
      TEMPO 2917/2918 22015G30KT 3SM TSRA BKN015CB BKN250
     FM292100 27007KT P6SM VCSH SCT030 BKN040 BKN200
     FM300300 25004KT P6SM SCT020 BKN100=



000
FTUS42 KTBW 291657 AAA
TAFPIE
TAF AMD
KPIE 291657Z 2917/3012 22012KT P6SM VCTS SCT025CB BKN050
      TEMPO 2917/2918 22015G30KT 3SM TSRA BKN015CB BKN250
     FM292100 27007KT P6SM VCSH SCT030 BKN040 BKN200
     FM300300 25004KT P6SM SCT020 BKN100=



000
FTUS42 KTBW 291656 AAB
TAFTPA
TAF AMD
KTPA 291656Z 2917/3012 22011KT P6SM VCTS SCT025CB BKN050
      TEMPO 2917/2919 VRB15G30KT 3SM TSRA BKN015CB OVC250
     FM292000 27007KT P6SM VCSH SCT030 BKN040 BKN200
     FM300300 25006KT P6SM SCT015 BKN150=



000
FTUS42 KTBW 291504 AAA
TAFTPA
TAF AMD
KTPA 291504Z 2915/3012 22006KT P6SM FEW020 SCT030 BKN250
     FM291700 26011KT P6SM VCTS SCT025CB BKN050
     FM292000 27007KT P6SM VCSH SCT030 BKN040 BKN200
     FM300300 25006KT P6SM SCT015 BKN150=



000
FTUS42 KTBW 291504 AAA
TAFTPA
TAF AMD
KTPA 291504Z 2915/3012 22006KT P6SM FEW020 SCT030 BKN250
     FM291700 26011KT P6SM VCTS SCT025CB BKN050
     FM292000 27007KT P6SM VCSH SCT030 BKN040 BKN200
     FM300300 25006KT P6SM SCT015 BKN150=



000
FTUS42 KTBW 291130
TAFPIE
TAF
KPIE 291130Z 2912/3012 25008KT P6SM FEW025 SCT100 BKN200
     FM291400 26011KT P6SM VCTS SCT025CB BKN050
     FM292100 27007KT P6SM VCSH SCT030 BKN040 BKN200
     FM300300 25004KT P6SM SCT020 BKN100=



000
FTUS42 KTBW 291130
TAFTPA
TAF
KTPA 291130Z 2912/3012 25008KT P6SM FEW025 SCT100 BKN200
     FM291500 26011KT P6SM VCTS SCT025CB BKN050
     FM292000 27007KT P6SM VCSH SCT030 BKN040 BKN200
     FM300300 25006KT P6SM SCT015 BKN150=



000
FTUS42 KTBW 291130
TAFSRQ
TAF
KSRQ 291130Z 2912/3012 25008KT P6SM VCSH FEW025 BKN080 BKN200
     FM291400 26007KT P6SM VCTS SCT035CB BKN050
     FM291800 26011KT P6SM VCSH SCT030 BKN040 BKN200
     FM300000 27007KT P6SM SCT030 BKN200=



000
FTUS42 KTBW 291130
TAFRSW
TAF
KRSW 291130Z 2912/3012 VRB04KT 6SM -RA VCTS FEW025 BKN040CB BKN200
     FM291300 27011KT P6SM VCTS SCT035CB BKN050
     FM291800 29009KT P6SM VCSH SCT030 BKN050
     FM300200 26005KT P6SM SCT030 BKN200=



000
FTUS42 KTBW 291130
TAFFMY
TAF
KFMY 291130Z 2912/3012 VRB04KT 6SM -RA VCTS FEW025 BKN040CB BKN200
     FM291300 27011KT P6SM VCTS SCT035CB BKN050
     FM291800 29009KT P6SM VCSH SCT030 BKN050
     FM300200 26005KT P6SM SCT030 BKN200=



000
FTUS42 KTBW 291012 AAA
TAFFMY
TAF AMD
KFMY 291012Z 2910/3006 27008KT 3SM RA SCT025 BKN040
     FM291045 24006KT P6SM VCSH FEW025 BKN040 BKN200
     FM291500 27011KT P6SM VCSH SCT035 BKN050
     FM300200 26005KT P6SM SCT030 BKN200=



000
FTUS42 KTBW 291012 AAB
TAFRSW
TAF AMD
KRSW 291012Z 2910/3006 VRB04KT 3SM RA SCT025
     FM291100 24006KT P6SM VCSH FEW025 BKN040 BKN200
     FM291500 27011KT P6SM VCSH SCT035 BKN050
     FM300200 26005KT P6SM SCT030 BKN200=



000
FTUS42 KTBW 290848 AAA
TAFTPA
TAF AMD
KTPA 290848Z 2909/3006 VRB04KT P6SM FEW010 BKN090 BKN200
     FM291100 25008KT P6SM FEW025 BKN040 BKN200
     FM291500 26011KT P6SM VCTS SCT025CB BKN050
     FM292000 27007KT P6SM VCSH SCT030 BKN040 BKN200=



000
FTUS42 KTBW 290848 AAA
TAFTPA
TAF AMD
KTPA 290848Z 2909/3006 VRB04KT P6SM FEW010 BKN090 BKN200
     FM291100 25008KT P6SM FEW025 BKN040 BKN200
     FM291500 26011KT P6SM VCTS SCT025CB BKN050
     FM292000 27007KT P6SM VCSH SCT030 BKN040 BKN200=



000
FTUS42 KTBW 290826 AAA
TAFRSW
TAF AMD
KRSW 290826Z 2908/3006 25004KT 4SM RA SCT025 SCT040
     FM290900 26004KT P6SM VCSH FEW025
     FM291100 24006KT P6SM VCSH FEW025 BKN040 BKN200
     FM291500 27011KT P6SM VCSH SCT035 BKN050
     FM300200 26005KT P6SM SCT030 BKN200=



000
FTUS42 KTBW 290540
TAFTPA
TAF
KTPA 290540Z 2906/3006 VRB04KT P6SM FEW010 SCT090 BKN200
     FM291100 25008KT P6SM FEW025 BKN040 BKN200
     FM291500 26011KT P6SM VCTS SCT025CB BKN050
     FM292000 27007KT P6SM VCSH SCT030 BKN040 BKN200=



000
FTUS42 KTBW 290540
TAFRSW
TAF
KRSW 290540Z 2906/3006 22004KT P6SM FEW025 SCT040
     FM291100 24006KT P6SM VCSH FEW025 BKN040 BKN200
     FM291500 27011KT P6SM VCSH SCT035 BKN050
     FM300200 26005KT P6SM SCT030 BKN200=



000
FTUS42 KTBW 290540
TAFFMY
TAF
KFMY 290540Z 2906/3006 VRB04KT P6SM SCT025 BKN040
     FM291100 24006KT P6SM VCSH FEW025 BKN040 BKN200
     FM291500 27011KT P6SM VCSH SCT035 BKN050
     FM300200 26005KT P6SM SCT030 BKN200=



000
FTUS42 KTBW 290540
TAFPIE
TAF
KPIE 290540Z 2906/3006 24005KT P6SM FEW010 BKN070 BKN200
     FM291100 25008KT P6SM FEW025 BKN040 BKN200
     FM291400 26011KT P6SM VCTS SCT025CB BKN050
     FM292000 27007KT P6SM VCSH SCT030 BKN040 BKN200=



000
FTUS42 KTBW 290540
TAFSRQ
TAF
KSRQ 290540Z 2906/3006 28008KT P6SM FEW015 BKN060 BKN200
     FM291100 25008KT P6SM FEW025 BKN040 BKN200
     FM291500 26011KT P6SM VCSH SCT035 BKN050
     FM300000 27007KT P6SM SCT030 BKN200=



000
FTUS42 KTBW 290309 AAB
TAFTPA
TAF AMD
KTPA 290309Z 2903/2924 VRB06KT P6SM VCSH SCT010 BKN040 BKN200
     FM291100 25008KT P6SM SHRA FEW025 BKN040 BKN200
     FM291600 26011KT P6SM VCTS SCT025CB BKN050=



000
FTUS42 KTBW 290309 AAB
TAFTPA
TAF AMD
KTPA 290309Z 2903/2924 VRB06KT P6SM VCSH SCT010 BKN040 BKN200
     FM291100 25008KT P6SM SHRA FEW025 BKN040 BKN200
     FM291600 26011KT P6SM VCTS SCT025CB BKN050=



000
FTUS42 KTBW 290058 AAA
TAFPIE
TAF AMD
KPIE 290058Z 2901/2924 25008KT P6SM VCTS FEW025CB SCT035 BKN080
      TEMPO 2901/2903 VRB10KT 4SM TSRA SCT015 BKN025CB
     FM290300 VRB06KT P6SM VCSH FEW010 BKN050 BKN200
     FM291000 25008KT P6SM SHRA FEW025 BKN040 BKN200
     FM291600 26011KT P6SM VCTS SCT025CB BKN050=



000
FTUS42 KTBW 290058 AAA
TAFTPA
TAF AMD
KTPA 290058Z 2901/2924 25011KT P6SM VCTS FEW025CB SCT035 BKN080
      TEMPO 2901/2903 VRB10KT 4SM TSRA SCT015 BKN025CB
     FM290300 VRB06KT P6SM VCSH FEW010 BKN050 BKN200
     FM291100 25008KT P6SM SHRA FEW025 BKN040 BKN200
     FM291600 26011KT P6SM VCTS SCT025CB BKN050=



000
FTUS42 KTBW 290058 AAA
TAFPIE
TAF AMD
KPIE 290058Z 2901/2924 25008KT P6SM VCTS FEW025CB SCT035 BKN080
      TEMPO 2901/2903 VRB10KT 4SM TSRA SCT015 BKN025CB
     FM290300 VRB06KT P6SM VCSH FEW010 BKN050 BKN200
     FM291000 25008KT P6SM SHRA FEW025 BKN040 BKN200
     FM291600 26011KT P6SM VCTS SCT025CB BKN050=



000
FTUS42 KTBW 290058 AAA
TAFTPA
TAF AMD
KTPA 290058Z 2901/2924 25011KT P6SM VCTS FEW025CB SCT035 BKN080
      TEMPO 2901/2903 VRB10KT 4SM TSRA SCT015 BKN025CB
     FM290300 VRB06KT P6SM VCSH FEW010 BKN050 BKN200
     FM291100 25008KT P6SM SHRA FEW025 BKN040 BKN200
     FM291600 26011KT P6SM VCTS SCT025CB BKN050=



000
FTUS42 KTBW 282333
TAFPIE
TAF
KPIE 282333Z 2900/2924 25008KT P6SM VCTS FEW025CB SCT035 BKN080
     FM290300 VRB06KT P6SM VCSH FEW010 BKN050 BKN200
     FM291000 25008KT P6SM SHRA FEW025 BKN040 BKN200
     FM291600 26011KT P6SM VCTS SCT025CB BKN050=



000
FTUS42 KTBW 282333
TAFSRQ
TAF
KSRQ 282333Z 2900/2924 24006KT P6SM VCSH SCT025 BKN035
     FM290300 VRB05KT P6SM VCSH FEW010 BKN050 BKN200
     FM291300 25007KT P6SM SHRA FEW025 BKN040 BKN200
     FM291600 26011KT P6SM VCTS SCT025CB BKN050=



000
FTUS42 KTBW 282333
TAFRSW
TAF
KRSW 282333Z 2900/2924 25008KT P6SM VCSH SCT035 BKN100
     FM290300 VRB04KT P6SM FEW010 BKN050 BKN200
     FM291400 26010KT P6SM SHRA FEW025 BKN040 BKN200
     FM291700 27011KT P6SM VCTS SCT025CB BKN050=



000
FTUS42 KTBW 282333
TAFFMY
TAF
KFMY 282333Z 2900/2924 26008KT P6SM VCSH SCT035 BKN100
     FM290300 VRB04KT P6SM FEW010 BKN050 BKN200
     FM291400 26010KT P6SM SHRA FEW025 BKN040 BKN200
     FM291700 27011KT P6SM VCTS SCT025CB BKN050=



000
FTUS42 KTBW 282333
TAFTPA
TAF
KTPA 282333Z 2900/2924 25011KT P6SM VCTS FEW025CB SCT035 BKN080
     FM290300 VRB06KT P6SM VCSH FEW010 BKN050 BKN200
     FM291100 25008KT P6SM SHRA FEW025 BKN040 BKN200
     FM291600 26011KT P6SM VCTS SCT025CB BKN050=



000
FTUS42 KTBW 282117 AAA
TAFPIE
TAF AMD
KPIE 282117Z 2821/2918 27011KT P6SM VCSH SCT025 OVC050
      TEMPO 2821/2823 4SM SHRA BKN025
     FM282300 25008KT P6SM VCSH FEW025 SCT035 BKN080
     FM290300 27006KT P6SM FEW010 BKN050 BKN200
     FM291000 25008KT P6SM SHRA BKN040 BKN200=



000
FTUS42 KTBW 282112 AAA
TAFSRQ
TAF AMD
KSRQ 282112Z 2821/2918 27011KT P6SM VCSH SCT030 BKN080
      TEMPO 2821/2823 4SM SHRA BKN025
     FM282300 24006KT P6SM VCSH SCT025 BKN035
     FM290200 23005KT P6SM FEW010 BKN050 BKN200
     FM291300 25007KT P6SM SHRA BKN040 BKN200=



000
FTUS42 KTBW 282111 AAA
TAFTPA
TAF AMD
KTPA 282111Z 2821/2918 25011KT P6SM VCSH FEW025 SCT035 BKN080
     FM290300 25006KT P6SM FEW010 BKN050 BKN200
     FM291100 25008KT P6SM SHRA BKN040 BKN200=



000
FTUS42 KTBW 281728
TAFPIE
TAF
KPIE 281728Z 2818/2918 27011KT P6SM VCSH SCT015 BKN020 OVC050
      TEMPO 2818/2821 6SM SHRA BKN030
     FM282100 25012KT P6SM VCTS SCT035CB BKN080
     FM290300 27006KT P6SM FEW010 BKN050 BKN200
     FM291000 25008KT P6SM SHRA BKN040 BKN200=



000
FTUS42 KTBW 281728
TAFRSW
TAF
KRSW 281728Z 2818/2918 25012KT P6SM VCTS SCT030CB BKN250
     FM282300 25008KT P6SM VCSH SCT035 BKN100
     FM290100 25003KT P6SM FEW010 BKN050 BKN200
     FM291400 25010KT P6SM SHRA BKN040 BKN200=



000
FTUS42 KTBW 281728
TAFFMY
TAF
KFMY 281728Z 2818/2918 25012G18KT P6SM VCTS SCT030CB BKN250
     FM282300 26008KT P6SM VCSH SCT035 BKN100
     FM290100 26004KT P6SM FEW010 BKN050 BKN200
     FM291400 25010KT P6SM SHRA BKN040 BKN200=



000
FTUS42 KTBW 281728
TAFSRQ
TAF
KSRQ 281728Z 2818/2918 27011KT P6SM VCTS SCT030CB BKN080
      TEMPO 2819/2821 6SM SHRA BKN030
     FM282300 24006KT P6SM VCSH SCT025 BKN035
     FM290200 23005KT P6SM FEW010 BKN050 BKN200
     FM291300 25007KT P6SM SHRA BKN040 BKN200=



000
FTUS42 KTBW 281728
TAFPIE
TAF
KPIE 281728Z 2818/2918 27011KT P6SM VCSH SCT015 BKN020 OVC050
      TEMPO 2818/2821 6SM SHRA BKN030
     FM282100 25012KT P6SM VCTS SCT035CB BKN080
     FM290300 27006KT P6SM FEW010 BKN050 BKN200
     FM291000 25008KT P6SM SHRA BKN040 BKN200=



000
FTUS42 KTBW 281728
TAFSRQ
TAF
KSRQ 281728Z 2818/2918 27011KT P6SM VCTS SCT030CB BKN080
      TEMPO 2819/2821 6SM SHRA BKN030
     FM282300 24006KT P6SM VCSH SCT025 BKN035
     FM290200 23005KT P6SM FEW010 BKN050 BKN200
     FM291300 25007KT P6SM SHRA BKN040 BKN200=



000
FTUS42 KTBW 281728
TAFFMY
TAF
KFMY 281728Z 2818/2918 25012G18KT P6SM VCTS SCT030CB BKN250
     FM282300 26008KT P6SM VCSH SCT035 BKN100
     FM290100 26004KT P6SM FEW010 BKN050 BKN200
     FM291400 25010KT P6SM SHRA BKN040 BKN200=



000
FTUS42 KTBW 281728
TAFTPA
TAF
KTPA 281728Z 2818/2918 25012KT P6SM VCSH SCT035 BKN050 BKN120
      TEMPO 2818/2821 6SM SHRA BKN030
     FM282100 25012KT P6SM VCTS SCT035CB BKN080
     FM290300 25006KT P6SM FEW010 BKN050 BKN200
     FM291100 25008KT P6SM SHRA BKN040 BKN200=



000
FTUS42 KTBW 281728
TAFRSW
TAF
KRSW 281728Z 2818/2918 25012KT P6SM VCTS SCT030CB BKN250
     FM282300 25008KT P6SM VCSH SCT035 BKN100
     FM290100 25003KT P6SM FEW010 BKN050 BKN200
     FM291400 25010KT P6SM SHRA BKN040 BKN200=



000
FTUS42 KTBW 281728
TAFTPA
TAF
KTPA 281728Z 2818/2918 25012KT P6SM VCSH SCT035 BKN050 BKN120
      TEMPO 2818/2821 6SM SHRA BKN030
     FM282100 25012KT P6SM VCTS SCT035CB BKN080
     FM290300 25006KT P6SM FEW010 BKN050 BKN200
     FM291100 25008KT P6SM SHRA BKN040 BKN200=



000
FTUS42 KTBW 281701 AAB
TAFRSW
TAF AMD
KRSW 281701Z 2817/2912 23014KT P6SM VCSH SCT025 BKN035
     FM281800 25012KT P6SM VCTS SCT030CB BKN250
     FM282300 25008KT P6SM VCSH SCT035 BKN100=



000
FTUS42 KTBW 281659 AAB
TAFPIE
TAF AMD
KPIE 281659Z 2817/2912 27011KT P6SM VCSH SCT015 BKN020 OVC050
     FM281900 25012KT P6SM VCTS SCT035CB BKN080=



000
FTUS42 KTBW 281659 AAB
TAFPIE
TAF AMD
KPIE 281659Z 2817/2912 27011KT P6SM VCSH SCT015 BKN020 OVC050
     FM281900 25012KT P6SM VCTS SCT035CB BKN080=



000
FTUS42 KTBW 281658 AAB
TAFTPA
TAF AMD
KTPA 281658Z 2817/2912 25012KT P6SM VCSH SCT035 BKN050 BKN120
      TEMPO 2817/2818 3SM SHRA BR BKN030 BKN035 OVC050
     FM281900 25012KT P6SM VCTS SCT035CB BKN080=



000
FTUS42 KTBW 281658 AAB
TAFTPA
TAF AMD
KTPA 281658Z 2817/2912 25012KT P6SM VCSH SCT035 BKN050 BKN120
      TEMPO 2817/2818 3SM SHRA BR BKN030 BKN035 OVC050
     FM281900 25012KT P6SM VCTS SCT035CB BKN080=



000
FTUS42 KTBW 281622 AAB
TAFSRQ
TAF AMD
KSRQ 281622Z 2816/2912 26011KT P6SM VCSH FEW020
     FM281800 24011KT P6SM VCTS SCT030CB BKN080
     FM282300 24006KT P6SM VCSH SCT025 BKN035=



000
FTUS42 KTBW 281426 AAA
TAFRSW
TAF AMD
KRSW 281426Z 2814/2912 25009KT P6SM VCSH BKN025 BKN035
     FM281800 25012KT P6SM VCTS SCT030CB BKN250
     FM282300 25008KT P6SM VCSH SCT035 BKN100=



000
FTUS42 KTBW 281416 AAA
TAFSRQ
TAF AMD
KSRQ 281416Z 2814/2912 29012KT P6SM VCSH FEW020 SCT025
      TEMPO 2814/2817 3SM SHRA BKN020 BKN025
     FM281800 24011KT P6SM VCTS SCT030CB BKN080
     FM282300 24006KT P6SM VCSH SCT025 BKN035=



000
FTUS42 KTBW 281415 AAA
TAFPIE
TAF AMD
KPIE 281415Z 2814/2912 24012KT P6SM VCTS SCT020CB SCT030 BKN120
      TEMPO 2814/2817 VRB12G22KT 4SM SHRA BKN025
     FM281900 25012KT P6SM VCTS SCT035CB BKN080=



000
FTUS42 KTBW 281415 AAA
TAFPIE
TAF AMD
KPIE 281415Z 2814/2912 24012KT P6SM VCTS SCT020CB SCT030 BKN120
      TEMPO 2814/2817 VRB12G22KT 4SM SHRA BKN025
     FM281900 25012KT P6SM VCTS SCT035CB BKN080=



000
FTUS42 KTBW 281412 AAA
TAFTPA
TAF AMD
KTPA 281412Z 2814/2912 24012KT P6SM VCTS SCT020CB SCT030 BKN120
      TEMPO 2814/2817 4SM SHRA BKN025
     FM281900 25012KT P6SM VCTS SCT035CB BKN080=



    US Dept of Commerce
    National Oceanic and Atmospheric Administration
    National Weather Service
    1325 East West Highway
    Silver Spring, MD 20910
    Page Author: NWS Internet Services Team
Disclaimer
Information Quality
Credits
Glossary
Privacy Policy
Freedom of Information Act (FOIA)
About Us
Career Opportunities